Time;durP1;ratioP1;P1;durP2;ratioP2;P2;SDS_P1;SDS_P2;PMS_P1;PMS_P2;Temp;Humidity;BMP_temperature;BMP_pressure;BME280_temperature;BME280_humidity;BME280_pressure;Samples;Min_cycle;Max_cycle;Signal;HPM_P1;HPM_P2
2021/12/08 00:01:51;;;;;;;8.77;4.13;;;4.60;99.90;;;;;;4912686;29;20040;-70
2021/12/08 00:04:16;;;;;;;7.97;4.47;;;4.60;99.90;;;;;;4913704;29;20103;-70
2021/12/08 00:06:42;;;;;;;12.87;5.90;;;4.70;99.90;;;;;;4913779;29;20478;-70
2021/12/08 00:09:27;;;;;;;8.13;4.17;;;;;;;;;;4913080;29;20055;-69
2021/12/08 00:14:36;;;;;;;11.13;4.67;;;4.70;99.90;;;;;;4927698;29;19989;-70
2021/12/08 00:17:02;;;;;;;7.53;4.27;;;;;;;;;;4932047;29;20069;-69
2021/12/08 00:19:28;;;;;;;7.27;4.43;;;4.60;99.90;;;;;;4947125;29;20043;-70
2021/12/08 00:21:54;;;;;;;12.17;5.87;;;4.50;99.90;;;;;;4925612;29;20048;-69
2021/12/08 00:24:20;;;;;;;7.30;4.80;;;;;;;;;;4913406;29;20424;-69
2021/12/08 00:26:46;;;;;;;9.03;4.43;;;;;;;;;;4919829;29;20027;-69
2021/12/08 00:29:12;;;;;;;9.27;4.73;;;4.60;99.90;;;;;;4931448;29;20241;-69
2021/12/08 00:31:38;;;;;;;14.50;5.13;;;4.60;99.90;;;;;;4932252;29;20039;-69
2021/12/08 00:34:03;;;;;;;11.40;4.17;;;4.60;99.90;;;;;;4931582;29;20098;-69
2021/12/08 00:36:40;;;;;;;8.73;4.30;;;4.80;99.90;;;;;;4932253;29;20428;-69
2021/12/08 00:39:05;;;;;;;8.17;4.47;;;4.60;99.90;;;;;;4931492;29;20032;-69
2021/12/08 00:41:31;;;;;;;9.37;4.50;;;;;;;;;;4926675;29;20043;-69
2021/12/08 00:43:57;;;;;;;7.37;4.70;;;4.80;99.90;;;;;;4912320;29;20064;-70
2021/12/08 00:46:22;;;;;;;8.37;4.80;;;5.10;99.90;;;;;;4922232;29;20062;-70
2021/12/08 00:48:50;;;;;;;12.43;5.63;;;4.80;99.90;;;;;;4931878;29;20047;-70
2021/12/08 00:51:17;;;;;;;13.03;5.90;;;4.70;99.90;;;;;;4932034;29;20038;-70
2021/12/08 00:53:43;;;;;;;16.50;5.20;;;;;;;;;;4946413;29;20036;-70
2021/12/08 00:56:09;;;;;;;8.33;5.17;;;;;;;;;;4931398;29;20055;-70
2021/12/08 00:58:34;;;;;;;11.53;5.63;;;4.70;99.90;;;;;;4946126;29;20497;-70
2021/12/08 01:01:00;;;;;;;12.37;6.37;;;;;;;;;;4931455;29;20457;-70
2021/12/08 01:03:26;;;;;;;6.40;4.93;;;;;;;;;;4946544;29;20074;-70
2021/12/08 01:05:55;;;;;;;13.87;6.57;;;4.70;99.90;;;;;;4931164;29;20035;-70
2021/12/08 01:08:23;;;;;;;14.13;5.90;;;4.80;99.90;;;;;;4930195;29;20056;-70
2021/12/08 01:10:51;;;;;;;12.50;5.97;;;4.70;99.90;;;;;;4912635;29;20054;-70
2021/12/08 01:13:17;;;;;;;6.87;4.73;;;4.90;99.90;;;;;;4912429;29;20059;-70
2021/12/08 01:15:48;;;;;;;13.43;6.03;;;4.80;99.90;;;;;;4912727;29;20044;-70
2021/12/08 01:18:15;;;;;;;9.10;5.80;;;4.90;99.90;;;;;;4912475;29;20040;-70
2021/12/08 01:20:40;;;;;;;8.77;4.80;;;4.80;99.90;;;;;;4912693;29;20096;-70
2021/12/08 01:23:06;;;;;;;9.67;4.97;;;5.00;99.90;;;;;;4943240;29;20040;-70
2021/12/08 01:25:32;;;;;;;7.00;3.93;;;4.70;99.90;;;;;;4931774;29;20433;-70
2021/12/08 01:27:58;;;;;;;7.90;4.77;;;;;;;;;;4930681;29;20036;-70
2021/12/08 01:30:24;;;;;;;6.87;3.80;;;5.10;99.90;;;;;;4931740;29;20031;-70
2021/12/08 01:32:52;;;;;;;8.47;3.50;;;;;;;;;;4931456;29;20034;-70
2021/12/08 01:35:18;;;;;;;7.17;4.13;;;;;;;;;;4918578;29;20035;-70
2021/12/08 01:37:43;;;;;;;6.80;4.00;;;5.10;99.90;;;;;;4914116;29;20028;-70
2021/12/08 01:40:11;;;;;;;7.37;4.93;;;5.20;99.90;;;;;;4915983;29;20385;-71
2021/12/08 01:42:43;;;;;;;6.90;3.63;;;;;;;;;;4915908;29;20025;-70
2021/12/08 01:47:56;;;;;;;6.33;4.77;;;;;;;;;;4915685;29;20143;-70
2021/12/08 01:50:22;;;;;;;7.27;4.37;;;5.50;99.90;;;;;;4928560;29;20506;-70
2021/12/08 01:52:48;;;;;;;9.47;5.57;;;5.50;99.90;;;;;;4934955;29;20028;-70
2021/12/08 01:55:13;;;;;;;6.87;4.30;;;5.40;99.90;;;;;;4934700;29;20036;-70
2021/12/08 01:57:40;;;;;;;7.43;4.73;;;;;;;;;;4934559;29;20027;-70
2021/12/08 02:00:21;;;;;;;8.80;4.83;;;5.50;99.90;;;;;;4934343;29;20028;-70
2021/12/08 02:02:47;;;;;;;7.67;5.17;;;;;;;;;;4934836;29;20126;-70
2021/12/08 02:05:12;;;;;;;9.83;6.33;;;5.50;99.90;;;;;;4922541;29;20517;-70
2021/12/08 02:07:38;;;;;;;8.57;5.00;;;;;;;;;;4915819;29;20127;-70
2021/12/08 02:10:06;;;;;;;8.67;4.67;;;5.50;99.90;;;;;;4916147;29;20056;-70
2021/12/08 02:12:37;;;;;;;11.67;4.93;;;5.60;99.90;;;;;;4915326;29;20040;-70
2021/12/08 02:15:04;;;;;;;5.33;4.40;;;5.40;99.90;;;;;;4925068;29;20031;-70
2021/12/08 02:17:30;;;;;;;5.97;4.70;;;5.60;99.90;;;;;;4934680;29;20103;-70
2021/12/08 02:19:55;;;;;;;7.23;4.50;;;5.70;99.90;;;;;;4934153;29;20473;-70
2021/12/08 02:22:21;;;;;;;7.87;5.03;;;;;;;;;;4934597;29;20035;-70
2021/12/08 02:24:47;;;;;;;7.70;4.67;;;5.60;99.90;;;;;;4934395;29;20035;-70
2021/12/08 02:27:13;;;;;;;8.50;4.33;;;5.60;99.90;;;;;;4933299;29;20032;-70
2021/12/08 02:29:46;;;;;;;5.37;4.37;;;;;;;;;;4926264;29;20067;-70
2021/12/08 02:32:33;;;;;;;5.45;4.57;;;5.70;99.90;;;;;;4914258;29;20028;-70
2021/12/08 02:48:39;;;;;;;4.45;3.10;;;5.70;99.90;;;;;;4933250;29;20053;-70
2021/12/08 02:51:05;;;;;;;6.57;4.10;;;5.70;99.90;;;;;;4933578;29;20035;-70
2021/12/08 02:53:33;;;;;;;7.03;4.00;;;5.70;99.90;;;;;;4934075;29;20027;-70
2021/12/08 02:55:58;;;;;;;4.40;2.80;;;5.60;99.90;;;;;;4932294;29;20031;-70
2021/12/08 02:58:25;;;;;;;4.30;2.67;;;5.60;99.90;;;;;;4933923;29;20024;-70
2021/12/08 03:01:00;;;;;;;6.27;3.20;;;5.60;99.90;;;;;;4917406;29;20024;-70
2021/12/08 03:03:26;;;;;;;3.20;2.43;;;5.50;99.90;;;;;;4914928;29;20021;-70
2021/12/08 03:05:52;;;;;;;4.27;2.40;;;;;;;;;;4914324;29;20043;-70
2021/12/08 03:08:18;;;;;;;4.73;2.50;;;;;;;;;;4923289;29;20043;-70
2021/12/08 03:10:46;;;;;;;4.07;2.93;;;5.20;99.90;;;;;;4933074;29;20684;-70
2021/12/08 03:13:13;;;;;;;4.77;2.70;;;5.20;99.90;;;;;;4933202;29;20039;-70
2021/12/08 03:15:40;;;;;;;6.23;3.07;;;5.20;99.90;;;;;;4933722;29;20035;-70
2021/12/08 03:18:07;;;;;;;5.17;3.07;;;5.10;99.90;;;;;;4931873;28;20080;-70
2021/12/08 03:20:43;;;;;;;9.57;3.40;;;4.80;99.90;;;;;;4928979;29;20092;-70
2021/12/08 03:23:14;;;;;;;7.87;2.90;;;5.20;99.90;;;;;;4928414;29;20418;-70
2021/12/08 03:25:45;;;;;;;7.33;3.00;;;5.20;99.90;;;;;;4933472;29;20149;-70
2021/12/08 03:28:23;;;;;;;4.13;2.83;;;5.10;99.90;;;;;;4932961;29;20070;-70
2021/12/08 03:31:02;;;;;;;5.80;2.70;;;5.20;99.90;;;;;;4933240;29;20024;-70
2021/12/08 03:33:28;;;;;;;7.23;3.50;;;;;;;;;;4933407;29;20110;-70
2021/12/08 03:35:55;;;;;;;4.77;2.37;;;5.30;99.90;;;;;;4928721;29;20032;-70
2021/12/08 03:38:22;;;;;;;5.77;3.17;;;5.40;99.90;;;;;;4913925;29;20064;-70
2021/12/08 03:40:49;;;;;;;6.13;2.70;;;5.50;99.90;;;;;;4914160;29;20410;-70
2021/12/08 03:43:15;;;;;;;4.73;2.53;;;5.50;99.90;;;;;;4913994;29;20036;-70
2021/12/08 03:45:47;;;;;;;4.77;2.47;;;5.60;99.90;;;;;;4914222;29;20381;-70
2021/12/08 03:48:24;;;;;;;7.50;3.13;;;5.50;99.90;;;;;;4913552;29;20504;-70
2021/12/08 03:50:51;;;;;;;4.57;2.40;;;5.70;99.90;;;;;;4915378;29;20145;-70
2021/12/08 03:53:17;;;;;;;4.30;3.20;;;6.00;99.90;;;;;;4932540;29;20036;-70
2021/12/08 03:55:45;;;;;;;4.97;2.33;;;8.20;99.90;;;;;;4932868;29;20024;-70
2021/12/08 03:58:12;;;;;;;6.63;2.37;;;5.90;99.90;;;;;;4931951;29;20478;-70
2021/12/08 04:00:39;;;;;;;5.30;2.17;;;6.00;99.90;;;;;;4932342;29;20133;-70
2021/12/08 04:03:07;;;;;;;5.33;2.50;;;6.20;99.90;;;;;;4932520;29;20110;-70
2021/12/08 04:05:55;;;;;;;10.90;2.40;;;6.20;99.90;;;;;;4932526;29;20024;-70
2021/12/08 04:08:31;;;;;;;6.03;2.60;;;6.10;99.90;;;;;;4932011;29;20449;-70
2021/12/08 04:10:58;;;;;;;6.97;2.00;;;6.20;99.90;;;;;;4931174;29;20044;-70
2021/12/08 04:13:31;;;;;;;6.37;2.40;;;6.10;99.90;;;;;;4932392;29;20146;-70
2021/12/08 04:15:57;;;;;;;7.80;2.77;;;;;;;;;;4931905;29;20019;-70
2021/12/08 04:18:23;;;;;;;8.80;2.23;;;6.20;99.90;;;;;;4932152;29;20393;-70
2021/12/08 04:20:52;;;;;;;7.03;2.63;;;6.30;99.90;;;;;;4926463;29;20107;-70
2021/12/08 04:23:20;;;;;;;7.03;2.17;;;6.30;99.90;;;;;;4912913;29;20042;-70
2021/12/08 04:25:49;;;;;;;5.50;2.40;;;6.20;99.90;;;;;;4913256;29;20111;-70
2021/12/08 04:28:24;;;;;;;5.63;1.80;;;6.20;99.90;;;;;;4912999;29;20476;-70
2021/12/08 04:30:59;;;;;;;5.73;2.27;;;6.30;99.90;;;;;;4912902;29;20421;-70
2021/12/08 04:33:26;;;;;;;8.70;2.70;;;6.30;99.90;;;;;;4913227;29;20030;-70
2021/12/08 04:35:53;;;;;;;7.90;2.37;;;6.30;99.90;;;;;;4913567;29;20523;-70
2021/12/08 04:38:28;;;;;;;7.47;2.10;;;6.30;99.90;;;;;;4932022;29;20020;-70
2021/12/08 04:41:07;;;;;;;3.83;1.90;;;6.80;99.90;;;;;;4931300;29;20027;-70
2021/12/08 04:43:55;;;;;;;5.73;2.00;;;7.00;99.90;;;;;;4932122;29;20425;-70
2021/12/08 04:46:45;;;;;;;11.27;2.63;;;6.10;99.90;;;;;;4916988;29;20032;-70
2021/12/08 05:03:02;;;;;;;6.23;2.07;;;5.70;99.90;;;;;;4932072;29;20162;-70
2021/12/08 05:05:38;;;;;;;5.90;1.70;;;5.60;99.90;;;;;;4930519;29;20039;-70
2021/12/08 05:08:15;;;;;;;2.90;1.30;;;5.50;99.90;;;;;;4931214;29;20047;-70
2021/12/08 05:10:41;;;;;;;7.80;1.87;;;5.50;99.90;;;;;;4931671;29;20044;-70
2021/12/08 05:13:11;;;;;;;4.63;1.57;;;5.20;99.90;;;;;;4915613;29;20036;-70
2021/12/08 05:15:45;;;;;;;3.37;1.70;;;5.40;99.90;;;;;;4916695;29;20115;-70
2021/12/08 05:18:18;;;;;;;6.20;1.23;;;5.30;99.90;;;;;;4916182;29;20075;-70
2021/12/08 05:20:56;;;;;;;6.50;1.33;;;5.20;99.90;;;;;;4916039;29;20158;-70
2021/12/08 05:23:29;;;;;;;4.17;1.90;;;5.20;99.90;;;;;;4916805;29;20058;-70
2021/12/08 05:25:57;;;;;;;5.10;1.57;;;5.30;99.90;;;;;;4915944;29;20393;-70
2021/12/08 05:28:26;;;;;;;5.83;1.37;;;5.40;99.90;;;;;;4916136;29;20063;-70
2021/12/08 05:31:00;;;;;;;4.13;1.33;;;5.80;99.90;;;;;;4915848;29;20071;-70
2021/12/08 05:33:26;;;;;;;7.75;1.50;;;5.50;99.90;;;;;;4916283;29;20032;-70
2021/12/08 05:35:53;;;;;;;3.97;1.37;;;5.60;99.90;;;;;;4915249;29;20054;-70
2021/12/08 05:38:19;;;;;;;5.73;1.60;;;5.70;99.90;;;;;;4926455;29;20067;-70
2021/12/08 05:40:52;;;;;;;3.97;1.40;;;5.60;99.90;;;;;;4916054;29;20036;-70
2021/12/08 05:43:19;;;;;;;6.10;1.48;;;5.90;99.90;;;;;;4916189;29;20474;-70
2021/12/08 05:45:46;;;;;;;4.17;2.00;;;5.70;99.90;;;;;;4930586;29;20482;-70
2021/12/08 05:48:13;;;;;;;8.13;1.50;;;5.60;99.90;;;;;;4915314;29;20040;-70
2021/12/08 05:50:51;;;;;;;9.90;1.73;;;5.50;99.90;;;;;;4916091;29;20079;-70
2021/12/08 05:53:17;;;;;;;2.93;1.37;;;5.40;99.90;;;;;;4917310;29;20032;-70
2021/12/08 05:55:44;;;;;;;7.90;1.83;;;5.30;99.90;;;;;;4934790;29;20477;-70
2021/12/08 05:58:11;;;;;;;8.57;2.40;;;5.30;99.90;;;;;;4934534;29;20031;-70
2021/12/08 06:00:37;;;;;;;8.53;2.23;;;;;;;;;;4934880;29;20034;-70
2021/12/08 06:03:02;;;;;;;7.40;1.17;;;5.10;99.90;;;;;;4933844;29;20444;-70
2021/12/08 06:05:30;;;;;;;5.10;1.00;;;5.10;99.90;;;;;;4934171;29;20428;-70
2021/12/08 06:07:56;;;;;;;2.40;1.40;;;5.00;99.90;;;;;;4919936;29;20381;-70
2021/12/08 06:10:27;;;;;;;3.87;1.17;;;4.90;99.90;;;;;;4915622;29;20044;-70
2021/12/08 06:12:53;;;;;;;5.10;1.50;;;;;;;;;;4914957;29;20552;-70
2021/12/08 06:15:19;;;;;;;3.33;1.30;;;5.10;99.90;;;;;;4915072;29;20064;-70
2021/12/08 06:17:45;;;;;;;8.63;1.70;;;;;;;;;;4914810;29;20024;-71
2021/12/08 06:20:12;;;;;;;7.20;1.40;;;4.90;99.90;;;;;;4931996;29;20516;-71
2021/12/08 06:22:39;;;;;;;6.70;1.37;;;4.90;99.90;;;;;;4934444;29;20460;-70
2021/12/08 06:25:06;;;;;;;8.33;1.50;;;4.80;99.90;;;;;;4919449;29;20059;-70
2021/12/08 06:27:32;;;;;;;3.97;1.33;;;4.80;99.90;;;;;;4915182;29;20032;-70
2021/12/08 06:29:59;;;;;;;6.33;0.90;;;4.80;99.90;;;;;;4914829;29;20092;-70
2021/12/08 06:32:25;;;;;;;5.70;1.10;;;;;;;;;;4914915;29;20183;-70
2021/12/08 06:34:56;;;;;;;10.40;1.70;;;4.80;99.90;;;;;;4921408;29;20059;-71
2021/12/08 06:37:26;;;;;;;6.20;1.37;;;4.60;99.90;;;;;;4934221;29;20058;-70
2021/12/08 06:39:58;;;;;;;7.70;1.47;;;4.80;99.90;;;;;;4933661;29;20110;-70
2021/12/08 06:42:27;;;;;;;6.47;1.80;;;4.90;99.90;;;;;;4934284;29;20031;-70
2021/12/08 06:44:53;;;;;;;6.90;1.03;;;4.90;99.90;;;;;;4933927;29;20099;-70
2021/12/08 06:47:23;;;;;;;9.33;1.80;;;5.00;99.90;;;;;;4933580;29;20071;-70
2021/12/08 06:49:51;;;;;;;9.30;1.43;;;4.80;99.90;;;;;;4933804;29;20116;-70
2021/12/08 06:52:22;;;;;;;7.80;1.10;;;4.80;99.90;;;;;;4929967;29;20023;-70
2021/12/08 06:54:59;;;;;;;11.60;1.77;;;4.90;99.90;;;;;;4914832;29;20099;-70
2021/12/08 06:57:35;;;;;;;8.23;1.40;;;4.80;99.90;;;;;;4914910;29;20055;-70
2021/12/08 07:00:24;;;;;;;2.80;1.00;;;4.80;99.90;;;;;;4914348;29;20525;-70
2021/12/08 07:06:04;;;;;;;8.47;1.00;;;4.60;99.90;;;;;;4913637;29;20100;-70
2021/12/08 07:08:31;;;;;;;4.80;1.20;;;4.60;99.90;;;;;;4914591;29;20438;-70
2021/12/08 07:10:57;;;;;;;10.23;1.20;;;4.60;99.90;;;;;;4914048;29;20051;-70
2021/12/08 07:13:25;;;;;;;7.67;1.33;;;5.00;99.90;;;;;;4914630;29;20028;-70
2021/12/08 07:15:57;;;;;;;10.47;1.53;;;4.60;99.90;;;;;;4913602;29;20111;-70
2021/12/08 07:18:39;;;;;;;7.93;1.37;;;4.60;99.90;;;;;;4914518;29;20051;-70
2021/12/08 07:21:09;;;;;;;10.03;1.43;;;4.50;99.90;;;;;;4914061;29;20039;-66
2021/12/08 07:23:45;;;;;;;5.33;1.47;;;4.50;99.90;;;;;;4914859;29;20027;-67
2021/12/08 07:26:23;;;;;;;8.80;1.80;;;4.60;99.90;;;;;;4915205;29;20036;-67
2021/12/08 07:28:50;;;;;;;16.53;2.50;;;4.70;99.90;;;;;;4931984;29;20032;-67
2021/12/08 07:31:32;;;;;;;5.30;1.60;;;4.50;99.90;;;;;;4932902;29;20091;-67
2021/12/08 07:34:04;;;;;;;5.90;1.20;;;4.70;99.90;;;;;;4932904;29;20083;-66
2021/12/08 07:36:32;;;;;;;6.40;1.43;;;4.70;99.90;;;;;;4932885;28;20429;-67
2021/12/08 07:38:59;;;;;;;10.33;2.67;;;4.40;99.90;;;;;;4932745;29;20035;-67
2021/12/08 07:41:30;;;;;;;5.10;1.27;;;4.20;99.90;;;;;;4933369;29;20016;-67
2021/12/08 07:44:01;;;;;;;7.03;1.50;;;4.60;99.90;;;;;;4932644;29;20059;-67
2021/12/08 07:46:31;;;;;;;5.90;1.47;;;4.60;99.90;;;;;;4932411;29;20035;-67
2021/12/08 07:49:05;;;;;;;17.23;2.33;;;4.50;99.90;;;;;;4929402;29;20469;-67
2021/12/08 07:51:36;;;;;;;6.63;1.60;;;4.40;99.90;;;;;;4925818;29;20028;-66
2021/12/08 07:54:04;;;;;;;6.87;1.50;;;4.40;99.90;;;;;;4913631;29;20046;-67
2021/12/08 07:56:32;;;;;;;8.90;1.60;;;;;;;;;;4913869;29;20123;-67
2021/12/08 07:59:01;;;;;;;7.27;1.10;;;4.30;99.90;;;;;;4927404;29;20051;-67
2021/12/08 08:01:31;;;;;;;10.50;2.27;;;4.20;99.90;;;;;;4927619;29;20168;-66
2021/12/08 08:03:58;;;;;;;8.00;1.63;;;4.40;99.90;;;;;;4931828;29;20031;-67
2021/12/08 08:06:28;;;;;;;7.47;1.67;;;4.50;99.90;;;;;;4927249;29;20036;-67
2021/12/08 08:08:54;;;;;;;8.20;1.60;;;4.60;99.90;;;;;;4920651;29;20035;-67
2021/12/08 08:11:25;;;;;;;10.63;2.57;;;4.60;99.90;;;;;;4932189;29;20063;-66
2021/12/08 08:13:50;;;;;;;11.50;2.20;;;4.80;99.90;;;;;;4930667;29;20027;-66
2021/12/08 08:16:21;;;;;;;8.00;2.23;;;5.10;99.90;;;;;;4924676;29;20036;-67
2021/12/08 08:18:55;;;;;;;6.97;1.77;;;4.90;99.90;;;;;;4930246;29;20107;-67
2021/12/08 08:21:23;;;;;;;5.47;1.85;;;4.80;99.90;;;;;;4932252;29;20049;-67
2021/12/08 08:23:49;;;;;;;6.00;1.80;;;4.80;99.90;;;;;;4932201;29;20061;-66
2021/12/08 08:26:15;;;;;;;5.37;1.33;;;4.90;99.90;;;;;;4930214;29;20102;-67
2021/12/08 08:28:47;;;;;;;8.60;1.60;;;4.90;99.90;;;;;;4930166;29;20115;-67
2021/12/08 08:31:20;;;;;;;6.80;2.07;;;5.10;99.90;;;;;;4932279;29;20027;-67
2021/12/08 08:33:46;;;;;;;7.60;2.00;;;4.90;99.90;;;;;;4932246;29;20099;-67
2021/12/08 08:36:17;;;;;;;5.20;1.53;;;5.10;99.90;;;;;;4931809;29;20028;-67
2021/12/08 08:38:50;;;;;;;10.50;2.00;;;5.00;99.90;;;;;;4932055;29;20086;-67
2021/12/08 08:41:23;;;;;;;13.50;2.40;;;5.00;99.90;;;;;;4931661;29;20488;-67
2021/12/08 08:43:51;;;;;;;10.13;1.50;;;5.00;99.90;;;;;;4931218;29;20034;-67
2021/12/08 08:46:21;;;;;;;6.57;2.10;;;5.00;99.90;;;;;;4927989;29;20055;-67
2021/12/08 08:48:51;;;;;;;5.43;2.13;;;5.00;99.90;;;;;;4924224;29;20040;-67
2021/12/08 08:51:23;;;;;;;8.70;1.67;;;5.00;99.90;;;;;;4931686;29;20034;-67
2021/12/08 08:53:51;;;;;;;9.53;1.63;;;4.90;99.90;;;;;;4931360;29;20070;-66
2021/12/08 08:56:24;;;;;;;5.40;1.87;;;4.90;99.90;;;;;;4931656;29;20016;-67
2021/12/08 08:58:57;;;;;;;9.47;1.87;;;4.90;99.90;;;;;;4930961;29;20032;-67
2021/12/08 09:01:27;;;;;;;11.97;2.13;;;4.50;99.90;;;;;;4932234;29;20028;-66
2021/12/08 09:04:01;;;;;;;7.70;1.73;;;4.80;99.90;;;;;;4931426;29;20084;-67
2021/12/08 09:06:34;;;;;;;12.18;2.15;;;4.80;99.90;;;;;;4930844;29;20079;-67
2021/12/08 09:09:07;;;;;;;5.97;2.40;;;4.90;99.90;;;;;;4927358;29;20040;-67
2021/12/08 09:11:39;;;;;;;5.00;1.58;;;4.80;99.90;;;;;;4929857;29;20559;-66
2021/12/08 09:14:33;;;;;;;4.70;0.90;;;4.90;99.90;;;;;;4931338;29;20043;-66
2021/12/08 09:17:16;;;;;;;5.07;1.58;;;4.80;99.90;;;;;;4910302;29;20152;-66
2021/12/08 09:19:48;;;;;;;9.83;2.83;;;4.50;99.90;;;;;;4915165;29;20071;-66
2021/12/08 09:22:28;;;;;;;6.20;2.10;;;5.00;99.90;;;;;;4931261;29;20023;-66
2021/12/08 09:25:06;;;;;;;6.37;2.47;;;5.00;99.90;;;;;;4927468;29;20142;-67
2021/12/08 09:27:35;;;;;;;8.50;2.10;;;4.90;99.90;;;;;;4923815;29;20418;-67
2021/12/08 09:30:10;;;;;;;6.93;1.67;;;5.00;99.90;;;;;;4930746;29;20020;-66
2021/12/08 09:32:49;;;;;;;5.90;1.93;;;5.00;99.90;;;;;;4931530;29;20020;-66
2021/12/08 09:35:18;;;;;;;9.03;2.57;;;5.00;99.90;;;;;;4930514;29;20047;-66
2021/12/08 09:37:52;;;;;;;7.33;1.40;;;5.10;99.90;;;;;;4930742;29;20244;-66
2021/12/08 09:40:29;;;;;;;4.75;1.35;;;5.20;99.90;;;;;;4930789;29;20023;-66
2021/12/08 09:42:58;;;;;;;5.87;1.77;;;5.20;99.90;;;;;;4931083;29;20035;-66
2021/12/08 09:45:32;;;;;;;12.50;2.13;;;5.20;99.90;;;;;;4931507;29;20532;-66
2021/12/08 09:48:04;;;;;;;4.90;1.43;;;5.20;99.90;;;;;;4930629;29;20039;-66
2021/12/08 09:50:30;;;;;;;7.07;2.47;;;5.30;99.90;;;;;;4931205;29;20028;-66
2021/12/08 09:52:57;;;;;;;7.87;2.07;;;5.40;99.90;;;;;;4930847;29;20032;-66
2021/12/08 09:55:23;;;;;;;8.73;2.30;;;;;;;;;;4930994;29;20396;-66
2021/12/08 09:57:49;;;;;;;6.93;2.57;;;;;;;;;;4931326;29;20032;-66
2021/12/08 10:00:24;;;;;;;6.07;1.90;;;5.30;99.90;;;;;;4934590;29;20038;-66
2021/12/08 10:02:57;;;;;;;7.17;1.97;;;5.50;99.90;;;;;;4933637;29;20503;-66
2021/12/08 10:05:25;;;;;;;6.27;1.87;;;5.40;99.90;;;;;;4934107;29;20028;-66
2021/12/08 10:07:51;;;;;;;4.87;1.53;;;5.50;99.90;;;;;;4932601;29;20111;-66
2021/12/08 10:10:17;;;;;;;5.87;1.97;;;5.50;99.90;;;;;;4933793;29;20147;-66
2021/12/08 10:12:44;;;;;;;6.53;1.60;;;;;;;;;;4934211;29;20102;-66
2021/12/08 10:15:13;;;;;;;9.40;2.40;;;5.30;99.90;;;;;;4933935;29;20465;-67
2021/12/08 10:17:38;;;;;;;8.13;2.00;;;5.40;99.90;;;;;;4932784;29;20477;-66
2021/12/08 10:20:18;;;;;;;6.93;1.60;;;5.30;99.90;;;;;;4933455;29;20035;-67
2021/12/08 10:22:47;;;;;;;8.03;1.70;;;5.20;99.90;;;;;;4934265;29;20366;-66
2021/12/08 10:25:22;;;;;;;6.47;1.47;;;5.40;99.90;;;;;;4933588;29;20032;-66
2021/12/08 10:28:12;;;;;;;11.17;1.53;;;5.40;99.90;;;;;;4934095;29;20477;-66
2021/12/08 10:30:52;;;;;;;7.63;1.60;;;5.50;99.90;;;;;;4933778;29;20035;-66
2021/12/08 10:36:45;;;;;;;7.23;1.43;;;5.50;99.90;;;;;;4929591;29;20036;-66
2021/12/08 10:39:10;;;;;;;4.90;1.53;;;5.80;99.90;;;;;;4928476;29;20028;-66
2021/12/08 10:41:54;;;;;;;8.87;1.40;;;5.60;99.90;;;;;;4948201;29;20038;-67
2021/12/08 10:44:23;;;;;;;3.23;1.30;;;5.80;99.90;;;;;;4934169;29;20034;-67
2021/12/08 10:46:54;;;;;;;3.83;1.30;;;5.80;99.90;;;;;;4933914;29;20023;-66
2021/12/08 10:54:23;;;;;;;9.27;1.47;;;5.60;99.90;;;;;;4933962;29;20066;-66
2021/12/08 10:54:54;;;;;;;3.97;1.70;;;5.70;99.90;;;;;;4927450;29;20038;-66
2021/12/08 10:57:25;;;;;;;4.50;0.90;;;5.80;99.90;;;;;;4933665;29;20039;-67
2021/12/08 11:00:10;;;;;;;5.17;1.53;;;5.80;99.90;;;;;;4930764;29;20023;-66
2021/12/08 11:02:48;;;;;;;4.67;1.43;;;5.90;99.90;;;;;;4933751;29;20036;-66
2021/12/08 11:05:26;;;;;;;5.10;1.00;;;6.00;99.90;;;;;;4932972;29;20414;-66
2021/12/08 11:08:27;;;;;;;6.33;1.10;;;5.90;99.90;;;;;;4930666;29;20047;-66
2021/12/08 11:11:03;;;;;;;4.40;1.20;;;5.90;99.90;;;;;;4909173;29;20058;-67
2021/12/08 11:13:39;;;;;;;8.37;1.93;;;5.90;99.90;;;;;;4923393;29;20067;-66
2021/12/08 11:16:19;;;;;;;7.67;2.03;;;6.00;99.90;;;;;;4935442;29;20039;-66
2021/12/08 11:18:48;;;;;;;5.47;2.13;;;6.00;99.90;;;;;;4922882;29;20107;-66
2021/12/08 11:21:24;;;;;;;6.23;1.53;;;5.90;99.90;;;;;;4933123;29;20016;-67
2021/12/08 11:23:52;;;;;;;4.50;1.20;;;6.00;99.90;;;;;;4932421;29;20091;-66
2021/12/08 11:26:26;;;;;;;5.60;1.33;;;6.00;99.90;;;;;;4933383;29;20106;-66
2021/12/08 11:29:16;;;;;;;3.25;1.13;;;6.30;99.90;;;;;;4932825;29;20173;-67
2021/12/08 11:31:45;;;;;;;6.07;2.00;;;6.40;99.90;;;;;;4933502;29;20114;-67
2021/12/08 11:34:15;;;;;;;8.33;1.97;;;6.20;99.90;;;;;;4932745;29;20046;-67
2021/12/08 11:36:41;;;;;;;7.83;1.70;;;6.40;99.90;;;;;;4932512;29;20190;-67
2021/12/08 11:39:19;;;;;;;3.93;1.30;;;6.10;99.90;;;;;;4932602;29;20441;-67
2021/12/08 11:41:48;;;;;;;6.83;2.53;;;6.50;99.90;;;;;;4932099;29;20032;-67
2021/12/08 11:44:26;;;;;;;11.07;1.60;;;6.50;99.90;;;;;;4931553;29;20019;-66
2021/12/08 11:47:13;;;;;;;4.47;1.53;;;6.70;99.90;;;;;;4932027;29;20075;-67
2021/12/08 11:49:49;;;;;;;5.03;1.70;;;6.60;99.90;;;;;;4932760;29;20043;-67
2021/12/08 11:52:19;;;;;;;4.20;1.77;;;6.70;99.90;;;;;;4932717;29;20038;-67
2021/12/08 11:55:16;;;;;;;7.90;1.63;;;7.00;99.90;;;;;;4932729;29;20106;-67
2021/12/08 11:57:51;;;;;;;6.50;1.60;;;7.10;99.90;;;;;;4928751;29;20397;-67
2021/12/08 12:00:18;;;;;;;6.07;1.50;;;;;;;;;;4951666;29;20364;-67
2021/12/08 12:03:02;;;;;;;4.63;1.33;;;6.50;99.90;;;;;;4951633;28;20027;-67
2021/12/08 12:05:45;;;;;;;4.85;1.75;;;7.00;99.90;;;;;;4951582;29;20472;-68
2021/12/08 12:08:13;;;;;;;3.97;1.40;;;7.00;99.90;;;;;;4951277;29;20122;-67
2021/12/08 12:10:43;;;;;;;7.63;1.43;;;7.00;99.90;;;;;;4946899;29;20123;-67
2021/12/08 12:13:10;;;;;;;2.60;1.80;;;6.90;99.90;;;;;;4931825;29;20577;-67
2021/12/08 12:15:37;;;;;;;4.37;1.23;;;7.00;99.90;;;;;;4919205;29;20330;-67
2021/12/08 12:18:03;;;;;;;8.63;1.93;;;6.90;99.90;;;;;;4921157;29;20059;-67
2021/12/08 12:20:41;;;;;;;4.67;1.57;;;6.80;99.90;;;;;;4930015;29;20040;-67
2021/12/08 12:23:35;;;;;;;6.97;1.93;;;6.90;99.90;;;;;;4931136;29;20058;-67
2021/12/08 12:26:11;;;;;;;4.82;1.42;;;6.90;99.90;;;;;;4929966;29;20012;-67
2021/12/08 12:28:52;;;;;;;7.07;1.80;;;6.80;99.90;;;;;;4930035;29;20032;-67
2021/12/08 12:31:19;;;;;;;6.07;1.97;;;7.00;99.90;;;;;;4930503;29;20032;-67
2021/12/08 12:33:47;;;;;;;4.93;2.30;;;7.10;99.90;;;;;;4931647;29;20481;-67
2021/12/08 12:36:22;;;;;;;6.93;2.30;;;7.30;99.90;;;;;;4928214;29;20028;-67
2021/12/08 12:38:47;;;;;;;6.17;1.90;;;7.10;99.90;;;;;;4930871;29;20054;-67
2021/12/08 12:41:29;;;;;;;5.57;1.57;;;7.00;99.90;;;;;;4931494;29;20032;-67
2021/12/08 12:44:19;;;;;;;8.43;2.07;;;7.40;99.90;;;;;;4926747;29;20023;-67
2021/12/08 12:47:12;;;;;;;5.97;1.97;;;6.50;99.90;;;;;;4923000;29;20019;-67
2021/12/08 12:49:41;;;;;;;3.50;1.37;;;7.10;99.90;;;;;;4927177;29;20456;-67
2021/12/08 12:52:10;;;;;;;8.23;2.20;;;7.10;99.90;;;;;;4931562;29;20015;-68
2021/12/08 12:54:39;;;;;;;3.13;1.47;;;7.10;99.90;;;;;;4932136;29;20035;-68
2021/12/08 12:57:07;;;;;;;6.77;2.30;;;7.10;99.90;;;;;;4927185;29;20713;-68
2021/12/08 12:59:44;;;;;;;7.00;2.67;;;6.70;99.90;;;;;;4932020;29;20035;-67
2021/12/08 13:02:32;;;;;;;5.77;1.83;;;7.10;99.90;;;;;;4931515;29;20034;-67
2021/12/08 13:05:10;;;;;;;3.90;1.70;;;7.10;99.90;;;;;;4931301;29;20039;-67
2021/12/08 13:07:42;;;;;;;10.33;3.03;;;6.80;99.90;;;;;;4931688;29;20032;-67
2021/12/08 13:10:20;;;;;;;8.00;2.10;;;6.70;99.90;;;;;;4931433;29;20048;-67
2021/12/08 13:12:45;;;;;;;5.03;1.70;;;6.70;99.90;;;;;;4931424;29;20024;-67
2021/12/08 13:15:20;;;;;;;6.27;2.40;;;6.40;99.90;;;;;;4913568;29;20580;-67
2021/12/08 13:18:14;;;;;;;5.47;2.10;;;6.50;99.90;;;;;;4912563;29;20028;-67
2021/12/08 13:20:43;;;;;;;7.60;2.53;;;6.40;99.90;;;;;;4912187;29;20032;-67
2021/12/08 13:23:13;;;;;;;6.77;2.00;;;6.20;99.90;;;;;;4913295;29;20385;-67
2021/12/08 13:26:03;;;;;;;5.13;2.07;;;6.40;99.90;;;;;;4928645;29;20090;-67
2021/12/08 13:28:38;;;;;;;7.03;1.80;;;6.70;99.90;;;;;;4931842;29;20401;-67
2021/12/08 13:31:12;;;;;;;5.57;2.13;;;5.90;99.90;;;;;;4931194;29;20028;-67
2021/12/08 13:33:41;;;;;;;3.85;1.88;;;6.40;99.90;;;;;;4932858;29;20032;-67
2021/12/08 13:36:22;;;;;;;4.40;1.70;;;6.30;99.90;;;;;;4933880;29;20031;-67
2021/12/08 13:38:53;;;;;;;8.50;2.27;;;6.30;99.90;;;;;;4930332;29;20028;-67
2021/12/08 13:41:20;;;;;;;6.00;2.03;;;6.40;99.90;;;;;;4934932;29;20103;-67
2021/12/08 13:43:49;;;;;;;5.27;1.80;;;6.40;99.90;;;;;;4934665;29;20038;-67
2021/12/08 13:46:37;;;;;;;3.93;2.00;;;6.60;99.90;;;;;;4934673;29;20070;-67
2021/12/08 13:49:18;;;;;;;6.57;2.10;;;6.70;99.90;;;;;;4933443;29;20044;-67
2021/12/08 13:52:01;;;;;;;5.57;1.93;;;6.80;99.90;;;;;;4934492;29;20023;-67
2021/12/08 13:54:31;;;;;;;2.67;1.40;;;6.60;99.90;;;;;;4933966;29;20095;-67
2021/12/08 13:56:58;;;;;;;6.97;1.67;;;6.70;99.90;;;;;;4933317;29;20019;-67
2021/12/08 13:59:48;;;;;;;5.20;1.70;;;6.40;99.90;;;;;;4932652;29;20103;-67
2021/12/08 14:02:24;;;;;;;6.30;1.70;;;6.40;99.90;;;;;;4934073;29;20028;-68
2021/12/08 14:05:03;;;;;;;7.27;2.60;;;6.30;99.90;;;;;;4934501;29;20488;-67
2021/12/08 14:07:29;;;;;;;3.20;1.73;;;6.30;99.90;;;;;;4930823;29;20035;-67
2021/12/08 14:09:59;;;;;;;3.07;1.70;;;6.30;99.90;;;;;;4933980;29;20052;-67